createdAt,value
2023-02-15T00:00:13.315Z,30.20
2023-02-15T00:03:00.554Z,34.00
2023-02-15T00:05:28.213Z,31.20
2023-02-15T00:07:55.489Z,33.40
2023-02-15T00:10:24.656Z,33.50
2023-02-15T00:12:51.928Z,32.20
2023-02-15T00:15:19.293Z,34.00
2023-02-15T00:17:46.628Z,33.40
2023-02-15T00:20:15.241Z,31.10
2023-02-15T00:22:42.666Z,31.10
2023-02-15T00:25:09.930Z,32.10
2023-02-15T00:27:37.166Z,33.40
2023-02-15T00:30:04.766Z,33.60
2023-02-15T00:32:32.543Z,34.10
2023-02-15T00:34:59.704Z,33.20
2023-02-15T00:37:26.872Z,30.80
2023-02-15T00:39:54.404Z,29.70
2023-02-15T00:42:21.667Z,32.30
2023-02-15T00:44:48.837Z,31.40
2023-02-15T00:47:16.015Z,33.90
2023-02-15T00:49:43.319Z,27.90
2023-02-15T00:52:11.108Z,35.80
2023-02-15T00:54:39.825Z,33.80
2023-02-15T00:57:07.276Z,32.30
2023-02-15T00:59:35.461Z,38.60
2023-02-15T01:02:02.700Z,30.40
2023-02-15T01:04:29.903Z,34.30
2023-02-15T01:06:57.209Z,33.50
2023-02-15T01:09:24.522Z,35.90
2023-02-15T01:11:51.764Z,33.00
2023-02-15T01:14:18.967Z,35.70
2023-02-15T01:16:46.180Z,35.40
2023-02-15T01:19:13.702Z,36.00
2023-02-15T01:21:41.815Z,37.60
2023-02-15T01:24:14.476Z,38.40
2023-02-15T01:26:41.633Z,35.70
2023-02-15T01:29:08.846Z,36.40
2023-02-15T01:31:36.135Z,33.00
2023-02-15T01:34:03.341Z,37.50
2023-02-15T01:36:31.636Z,42.50
2023-02-15T01:38:58.802Z,41.50
2023-02-15T01:41:28.180Z,40.20
2023-02-15T01:44:00.910Z,40.10
2023-02-15T01:46:51.257Z,39.50
2023-02-15T01:49:22.105Z,34.40
2023-02-15T01:51:51.303Z,34.60
2023-02-15T01:54:27.349Z,37.10
2023-02-15T01:56:59.760Z,35.50
2023-02-15T01:59:29.481Z,38.00
2023-02-15T02:02:00.800Z,41.90
2023-02-15T02:04:42.994Z,36.80
2023-02-15T02:07:10.962Z,38.40
2023-02-15T02:09:38.404Z,39.80
2023-02-15T02:12:06.305Z,38.20
2023-02-15T02:14:33.932Z,42.40
2023-02-15T02:17:22.690Z,38.40
2023-02-15T02:20:24.526Z,38.00
2023-02-15T02:23:06.884Z,37.40
2023-02-15T02:26:11.500Z,37.30
2023-02-15T02:28:56.982Z,39.60
2023-02-15T02:31:48.932Z,43.50
2023-02-15T02:34:16.114Z,34.80
2023-02-15T02:36:57.248Z,40.20
2023-02-15T02:39:44.297Z,37.60
2023-02-15T02:42:30.477Z,38.10
2023-02-15T02:45:05.165Z,38.80
2023-02-15T02:47:45.037Z,43.10
2023-02-15T02:50:18.333Z,38.50
2023-02-15T02:52:51.084Z,40.60
2023-02-15T02:55:31.871Z,39.90
2023-02-15T02:58:06.734Z,35.70
2023-02-15T03:00:44.978Z,44.20
2023-02-15T03:03:18.489Z,36.90
2023-02-15T03:05:49.016Z,38.40
2023-02-15T03:08:23.078Z,36.30
2023-02-15T03:10:54.845Z,39.70
2023-02-15T03:13:23.556Z,39.10
2023-02-15T03:16:12.071Z,37.00
2023-02-15T03:18:53.891Z,41.00
2023-02-15T03:21:31.443Z,38.60
2023-02-15T03:24:10.912Z,37.10
2023-02-15T03:26:40.354Z,35.40
2023-02-15T03:29:09.047Z,40.10
2023-02-15T03:31:41.357Z,37.80
2023-02-15T03:34:12.657Z,38.00
2023-02-15T03:36:54.677Z,35.80
2023-02-15T03:39:39.415Z,36.90
2023-02-15T03:42:09.481Z,41.60
2023-02-15T03:44:48.455Z,39.20
2023-02-15T03:47:21.569Z,39.60
2023-02-15T03:50:02.957Z,38.80
2023-02-15T03:52:32.181Z,35.80
2023-02-15T03:55:00.143Z,39.10
2023-02-15T03:57:48.258Z,43.10
2023-02-15T04:00:44.625Z,43.90
2023-02-15T04:03:30.155Z,39.20
2023-02-15T04:05:57.530Z,38.80
2023-02-15T04:08:44.718Z,35.60
2023-02-15T04:11:12.037Z,39.40
2023-02-15T04:13:39.313Z,35.90
2023-02-15T04:16:07.807Z,37.50
2023-02-15T04:18:58.202Z,40.40
2023-02-15T04:21:46.181Z,38.40
2023-02-15T04:24:33.135Z,36.10
2023-02-15T04:27:01.502Z,40.40
2023-02-15T04:29:29.491Z,36.40
2023-02-15T04:31:59.404Z,35.70
2023-02-15T04:34:27.296Z,39.00
2023-02-15T04:36:54.547Z,35.20
2023-02-15T04:39:21.782Z,38.00
2023-02-15T04:41:49.070Z,40.80
2023-02-15T04:44:16.525Z,43.50
2023-02-15T04:46:43.762Z,35.80
2023-02-15T04:49:11.044Z,42.50
2023-02-15T04:51:38.942Z,42.60
2023-02-15T04:54:06.204Z,41.40
2023-02-15T04:56:35.518Z,41.90
2023-02-15T04:59:02.688Z,45.80
2023-02-15T05:01:30.502Z,56.10
2023-02-15T05:03:58.006Z,61.80
2023-02-15T05:06:25.243Z,48.90
2023-02-15T05:08:52.495Z,46.60
2023-02-15T05:11:20.215Z,39.50
2023-02-15T05:13:47.913Z,42.30
2023-02-15T05:16:15.445Z,44.90
2023-02-15T05:18:42.710Z,44.30
2023-02-15T05:21:10.102Z,49.10
2023-02-15T05:23:37.545Z,44.80
2023-02-15T05:26:23.373Z,38.20
2023-02-15T05:28:50.671Z,38.90
2023-02-15T05:31:20.153Z,37.80
2023-02-15T05:33:47.940Z,41.00
2023-02-15T05:36:15.316Z,40.80
2023-02-15T05:38:42.657Z,39.60
2023-02-15T05:41:11.518Z,41.10
2023-02-15T05:43:39.949Z,39.80
2023-02-15T05:46:07.940Z,41.40
2023-02-15T05:48:36.175Z,46.10
2023-02-15T05:51:07.938Z,40.90
2023-02-15T05:53:39.147Z,49.10
2023-02-15T05:56:09.054Z,37.70
2023-02-15T05:58:39.358Z,41.20
2023-02-15T06:01:18.479Z,42.20
2023-02-15T06:03:47.265Z,43.20
2023-02-15T06:06:14.654Z,42.90
2023-02-15T06:08:42.618Z,40.90
2023-02-15T06:11:10.450Z,41.80
2023-02-15T06:13:38.942Z,42.70
2023-02-15T06:16:07.868Z,38.30
2023-02-15T06:18:35.688Z,40.50
2023-02-15T06:21:03.453Z,39.70
2023-02-15T06:23:30.908Z,38.30
2023-02-15T06:25:58.231Z,41.30
2023-02-15T06:28:26.696Z,45.50
2023-02-15T06:30:54.044Z,35.30
2023-02-15T06:33:24.444Z,40.80
2023-02-15T06:35:51.783Z,43.70
2023-02-15T06:38:19.187Z,37.20
2023-02-15T06:40:46.493Z,37.90
2023-02-15T06:43:13.799Z,40.00
2023-02-15T06:45:42.488Z,39.00
2023-02-15T06:48:09.871Z,35.50
2023-02-15T06:50:37.139Z,37.80
2023-02-15T06:53:04.420Z,34.80
2023-02-15T06:55:31.659Z,37.50
2023-02-15T06:57:59.363Z,36.30
2023-02-15T07:00:26.808Z,35.60
2023-02-15T07:02:59.435Z,42.50
2023-02-15T07:05:32.301Z,38.20
2023-02-15T07:08:00.483Z,38.70
2023-02-15T07:10:29.031Z,33.40
2023-02-15T07:12:56.327Z,41.50
2023-02-15T07:15:24.155Z,41.80
2023-02-15T07:17:51.851Z,35.10
2023-02-15T07:20:21.539Z,38.50
2023-02-15T07:22:49.434Z,35.40
2023-02-15T07:25:17.850Z,37.30
2023-02-15T07:27:46.369Z,36.10
2023-02-15T07:30:16.625Z,35.30
2023-02-15T07:33:05.068Z,34.90
2023-02-15T07:35:34.021Z,39.30
2023-02-15T07:38:02.317Z,37.30
2023-02-15T07:40:32.613Z,35.20
2023-02-15T07:43:00.400Z,36.20
2023-02-15T07:45:28.387Z,36.80
2023-02-15T07:47:55.776Z,35.30
2023-02-15T07:50:23.015Z,39.20
2023-02-15T07:52:50.313Z,37.40
2023-02-15T07:55:17.600Z,38.10
2023-02-15T07:57:46.285Z,40.40
2023-02-15T08:00:22.639Z,41.30
2023-02-15T08:03:14.439Z,42.00
2023-02-15T08:05:43.556Z,37.20
2023-02-15T08:08:31.147Z,38.70
2023-02-15T08:11:26.737Z,43.30
2023-02-15T08:13:55.501Z,39.10
2023-02-15T08:16:29.599Z,39.90
2023-02-15T08:18:59.274Z,40.20
2023-02-15T08:21:29.733Z,40.70
2023-02-15T08:23:57.835Z,40.00
2023-02-15T08:26:25.570Z,40.10
2023-02-15T08:28:53.290Z,41.70
2023-02-15T08:31:20.968Z,41.60
2023-02-15T08:33:50.565Z,42.10
2023-02-15T08:36:22.121Z,45.10
2023-02-15T08:38:49.555Z,44.10
2023-02-15T08:41:25.312Z,42.30
2023-02-15T08:43:58.133Z,43.20
2023-02-15T08:49:12.867Z,42.80
2023-02-15T08:51:40.783Z,43.20
2023-02-15T08:54:12.240Z,43.50
2023-02-15T08:56:41.865Z,42.60
2023-02-15T08:59:15.023Z,45.00
2023-02-15T09:01:42.685Z,42.30
2023-02-15T09:04:10.372Z,44.40
2023-02-15T09:06:39.458Z,39.90
2023-02-15T09:09:08.656Z,45.10
2023-02-15T09:11:41.669Z,47.00
2023-02-15T09:14:14.672Z,46.10
2023-02-15T09:16:47.511Z,49.70
2023-02-15T09:19:15.017Z,39.40
2023-02-15T09:21:42.348Z,42.40
2023-02-15T09:24:12.333Z,42.80
2023-02-15T09:26:42.700Z,46.90
2023-02-15T09:29:11.896Z,43.20
2023-02-15T09:31:47.654Z,42.70
2023-02-15T09:34:18.471Z,40.10
2023-02-15T09:36:46.424Z,40.20
